createdAt,value
2023-05-01T00:02:02.718Z,81.51
2023-05-01T00:07:06.760Z,81.82
2023-05-01T00:12:12.279Z,82.22
2023-05-01T00:17:17.161Z,82.49
2023-05-01T00:22:21.990Z,83.11
2023-05-01T00:27:27.839Z,83.04
2023-05-01T00:32:33.213Z,83.63
2023-05-01T00:37:38.018Z,83.34
2023-05-01T00:42:43.359Z,81.34
2023-05-01T00:47:49.078Z,86.94
2023-05-01T00:52:54.205Z,88.57
2023-05-01T00:58:01.361Z,85.98
2023-05-01T01:03:06.380Z,85.72
2023-05-01T01:08:58.104Z,85.94
2023-05-01T01:14:18.183Z,86.07
2023-05-01T01:20:11.454Z,85.99
2023-05-01T01:25:50.779Z,85.87
2023-05-01T01:31:29.335Z,85.83
2023-05-01T01:36:39.973Z,84.31
2023-05-01T01:41:51.212Z,81.97
2023-05-01T01:46:55.947Z,82.76
2023-05-01T01:52:02.809Z,84.78
2023-05-01T01:57:14.460Z,85.09
2023-05-01T02:02:22.065Z,85.48
2023-05-01T02:07:27.444Z,87.69
2023-05-01T02:12:33.009Z,86.17
2023-05-01T02:17:38.980Z,86.02
2023-05-01T02:22:47.685Z,84.90
2023-05-01T02:28:08.689Z,82.40
2023-05-01T02:33:13.340Z,83.41
2023-05-01T02:38:18.412Z,83.41
2023-05-01T02:43:24.793Z,82.55
2023-05-01T02:48:31.087Z,84.10
2023-05-01T02:53:36.987Z,82.32
2023-05-01T02:58:51.449Z,82.24
2023-05-01T03:03:56.336Z,82.72
2023-05-01T03:09:03.255Z,82.78
2023-05-01T03:14:07.115Z,83.63
2023-05-01T03:19:11.675Z,84.24
2023-05-01T03:24:17.483Z,85.17
2023-05-01T03:29:23.003Z,84.54
2023-05-01T03:34:28.653Z,82.51
2023-05-01T03:39:32.715Z,82.93
2023-05-01T03:45:03.760Z,83.56
2023-05-01T03:50:09.990Z,83.24
2023-05-01T03:55:18.006Z,84.68
2023-05-01T04:00:27.990Z,85.02
2023-05-01T04:05:34.609Z,83.43
2023-05-01T04:10:42.346Z,83.09
2023-05-01T04:15:47.479Z,82.82
2023-05-01T04:20:52.739Z,82.27
2023-05-01T04:25:58.588Z,77.58
2023-05-01T04:31:05.405Z,71.29
2023-05-01T04:36:10.396Z,65.68
2023-05-01T04:41:14.622Z,60.84
2023-05-01T04:46:22.480Z,58.25
2023-05-01T04:51:28.643Z,56.80
2023-05-01T04:56:33.212Z,57.08
2023-05-01T05:01:39.000Z,58.58
2023-05-01T05:06:44.902Z,59.83
2023-05-01T05:11:54.325Z,62.96
2023-05-01T05:17:00.724Z,65.24
2023-05-01T05:22:05.962Z,67.36
2023-05-01T05:27:16.437Z,68.44
2023-05-01T05:32:21.552Z,69.81
2023-05-01T05:37:26.524Z,69.85
2023-05-01T05:42:32.270Z,70.13
2023-05-01T05:47:41.297Z,70.32
2023-05-01T05:52:45.527Z,69.92
2023-05-01T05:57:50.205Z,69.61
2023-05-01T06:02:54.375Z,69.49
2023-05-01T06:08:01.860Z,69.42
2023-05-01T06:13:13.787Z,68.78
2023-05-01T06:18:24.078Z,68.33
2023-05-01T06:23:28.699Z,67.81
2023-05-01T06:28:55.321Z,67.07
2023-05-01T06:34:00.325Z,66.10
2023-05-01T06:39:24.263Z,65.62
2023-05-01T06:44:31.507Z,63.94
2023-05-01T06:49:39.384Z,62.38
2023-05-01T06:54:44.913Z,62.19
2023-05-01T06:59:49.626Z,61.08
2023-05-01T07:04:54.277Z,60.95
2023-05-01T07:09:59.526Z,61.55
2023-05-01T07:15:05.619Z,60.58
2023-05-01T07:20:11.893Z,59.72
2023-05-01T07:25:16.826Z,58.53
2023-05-01T07:30:21.798Z,57.57
2023-05-01T07:35:26.869Z,58.23
2023-05-01T07:40:34.716Z,55.07
2023-05-01T07:45:39.948Z,53.83
2023-05-01T07:50:47.271Z,53.08
2023-05-01T07:55:51.863Z,51.37
2023-05-01T08:00:57.102Z,50.28
2023-05-01T08:06:01.994Z,48.46
2023-05-01T08:11:06.175Z,48.26
2023-05-01T08:16:10.218Z,47.90
2023-05-01T08:21:14.203Z,48.22
2023-05-01T08:26:20.293Z,47.69
2023-05-01T08:31:26.363Z,47.53
2023-05-01T08:36:31.960Z,47.45
2023-05-01T08:41:37.486Z,46.92
2023-05-01T08:46:54.859Z,45.20
2023-05-01T08:51:59.576Z,45.03
2023-05-01T08:57:05.168Z,46.13
2023-05-01T09:02:11.092Z,47.09
2023-05-01T09:07:15.550Z,46.70
2023-05-01T09:12:31.080Z,45.72
2023-05-01T09:17:37.383Z,43.87
2023-05-01T09:22:41.735Z,42.89
2023-05-01T09:27:46.804Z,43.03
2023-05-01T09:33:15.447Z,43.70
2023-05-01T09:38:21.285Z,43.07
2023-05-01T09:43:27.757Z,40.68
2023-05-01T09:48:35.931Z,40.42
2023-05-01T09:53:42.323Z,41.21
2023-05-01T09:58:47.767Z,41.37
2023-05-01T10:03:56.996Z,40.50
2023-05-01T10:09:01.029Z,41.23
2023-05-01T10:14:09.825Z,41.58
2023-05-01T10:19:15.516Z,40.22
2023-05-01T10:24:20.718Z,39.80
2023-05-01T10:29:25.553Z,39.77
2023-05-01T10:34:31.684Z,40.19
2023-05-01T10:39:38.297Z,40.19
2023-05-01T10:44:43.161Z,39.03
2023-05-01T10:50:09.078Z,38.45
2023-05-01T10:55:37.322Z,39.05
2023-05-01T11:00:42.692Z,37.75
2023-05-01T11:06:17.246Z,37.15
2023-05-01T11:11:23.071Z,35.96
2023-05-01T11:16:46.805Z,36.94
2023-05-01T11:21:51.456Z,37.25
2023-05-01T11:26:56.348Z,36.61
2023-05-01T11:32:02.223Z,36.73
2023-05-01T11:37:06.677Z,36.20
2023-05-01T11:42:11.036Z,34.05
2023-05-01T11:47:15.260Z,34.08
2023-05-01T11:52:21.981Z,34.50
2023-05-01T11:57:28.934Z,33.53
2023-05-01T12:02:34.238Z,34.42
2023-05-01T12:07:38.506Z,34.55
2023-05-01T12:12:42.648Z,33.25
2023-05-01T12:17:48.514Z,34.32
2023-05-01T12:22:52.826Z,34.48
2023-05-01T12:27:56.785Z,33.61
2023-05-01T12:33:01.438Z,32.38
2023-05-01T12:38:16.482Z,32.19
2023-05-01T12:43:22.557Z,28.83
2023-05-01T12:48:26.621Z,29.43
2023-05-01T12:53:30.751Z,29.68
2023-05-01T12:58:38.621Z,29.96
2023-05-01T13:03:44.344Z,30.19
2023-05-01T13:08:48.418Z,29.80
2023-05-01T13:13:52.143Z,30.70
2023-05-01T13:18:56.024Z,32.10
2023-05-01T13:24:01.359Z,32.13
2023-05-01T13:29:06.115Z,31.50
2023-05-01T13:34:09.785Z,31.15
2023-05-01T13:39:21.256Z,30.94
2023-05-01T13:44:25.313Z,31.30
2023-05-01T13:49:29.109Z,30.39
2023-05-01T13:54:33.108Z,31.41
2023-05-01T13:59:44.984Z,31.32
2023-05-01T14:04:49.416Z,30.95
2023-05-01T14:09:55.962Z,31.56
2023-05-01T14:15:03.895Z,32.01
2023-05-01T14:20:09.133Z,31.66
2023-05-01T14:25:23.395Z,30.93
2023-05-01T14:30:33.946Z,31.48
2023-05-01T14:35:43.450Z,31.50
2023-05-01T14:40:48.197Z,31.66
2023-05-01T14:45:55.631Z,32.19
2023-05-01T14:50:59.870Z,30.61
2023-05-01T14:56:03.970Z,30.35
2023-05-01T15:01:07.922Z,29.54
2023-05-01T15:06:12.059Z,29.78
2023-05-01T15:11:17.171Z,30.42
2023-05-01T15:16:21.391Z,30.63
2023-05-01T15:21:25.315Z,30.35
2023-05-01T15:26:29.200Z,30.79
2023-05-01T15:31:33.133Z,30.76
2023-05-01T15:36:37.228Z,30.50
2023-05-01T15:41:41.447Z,31.04
2023-05-01T15:46:51.287Z,31.97
2023-05-01T15:51:55.552Z,32.44
2023-05-01T15:57:02.785Z,32.49
2023-05-01T16:02:09.256Z,32.79
2023-05-01T16:07:15.505Z,33.38
2023-05-01T16:12:24.687Z,33.65
2023-05-01T16:17:28.549Z,34.20
2023-05-01T16:22:33.197Z,34.61
2023-05-01T16:27:41.874Z,34.59
2023-05-01T16:32:46.615Z,35.33
2023-05-01T16:37:50.454Z,36.16
2023-05-01T16:42:56.499Z,36.65
2023-05-01T16:48:04.858Z,37.09
2023-05-01T16:53:12.054Z,36.72
2023-05-01T16:58:17.552Z,35.88
2023-05-01T17:03:21.490Z,34.45
2023-05-01T17:08:26.006Z,33.69
2023-05-01T17:13:30.244Z,32.90
2023-05-01T17:18:35.030Z,34.07
2023-05-01T17:23:42.353Z,32.68
2023-05-01T17:28:46.432Z,33.20
2023-05-01T17:33:51.064Z,33.19
2023-05-01T17:38:55.256Z,33.62
2023-05-01T17:43:59.731Z,34.47
2023-05-01T17:49:04.381Z,35.69
2023-05-01T17:54:10.969Z,36.92
2023-05-01T17:59:19.605Z,37.97
2023-05-01T18:04:25.234Z,39.13
2023-05-01T18:09:29.540Z,40.47
2023-05-01T18:14:34.583Z,41.96
2023-05-01T18:19:39.804Z,43.29
2023-05-01T18:24:44.780Z,44.09
2023-05-01T18:29:58.835Z,44.79
2023-05-01T18:35:05.687Z,45.57
2023-05-01T18:40:24.857Z,46.61
2023-05-01T18:45:31.992Z,47.85
2023-05-01T18:50:39.328Z,48.89
2023-05-01T18:55:49.866Z,50.61
2023-05-01T19:00:59.186Z,51.05
2023-05-01T19:06:05.677Z,52.31
2023-05-01T19:11:11.296Z,53.74
2023-05-01T19:16:18.196Z,54.51
2023-05-01T19:21:24.725Z,54.51
2023-05-01T19:26:30.739Z,54.72
2023-05-01T19:31:36.930Z,54.89
2023-05-01T19:36:46.339Z,57.17
2023-05-01T19:41:54.523Z,57.47
2023-05-01T19:47:02.240Z,56.33
2023-05-01T19:52:11.625Z,57.08
2023-05-01T19:57:19.236Z,57.49
2023-05-01T20:02:23.921Z,58.90
2023-05-01T20:07:29.991Z,59.51
2023-05-01T20:12:37.978Z,60.63
2023-05-01T20:17:44.119Z,61.44
2023-05-01T20:22:53.726Z,61.92
2023-05-01T20:27:57.728Z,61.73
2023-05-01T20:33:04.400Z,63.56
2023-05-01T20:38:08.349Z,64.64
2023-05-01T20:43:12.923Z,64.65
2023-05-01T20:48:19.014Z,65.23
2023-05-01T20:53:22.906Z,66.90
2023-05-01T20:58:26.980Z,66.86
2023-05-01T21:03:31.271Z,66.81
2023-05-01T21:08:35.811Z,66.75
2023-05-01T21:13:40.564Z,67.04
2023-05-01T21:18:45.493Z,66.63
2023-05-01T21:23:51.393Z,68.32
2023-05-01T21:28:56.559Z,67.69
2023-05-01T21:34:05.713Z,68.79
2023-05-01T21:39:12.480Z,68.85
2023-05-01T21:44:18.027Z,68.71
2023-05-01T21:49:40.062Z,69.41
2023-05-01T21:54:44.426Z,68.57
2023-05-01T21:59:49.157Z,69.80
2023-05-01T22:04:57.289Z,69.77
2023-05-01T22:10:02.263Z,69.41
2023-05-01T22:15:09.121Z,68.98
2023-05-01T22:20:14.124Z,68.79
2023-05-01T22:25:18.500Z,68.21
2023-05-01T22:30:23.101Z,68.59
2023-05-01T22:35:27.155Z,67.41
2023-05-01T22:40:31.902Z,68.65
2023-05-01T22:45:41.260Z,68.91
2023-05-01T22:50:45.603Z,69.15
2023-05-01T22:55:50.050Z,71.16
2023-05-01T23:00:54.050Z,70.65
2023-05-01T23:05:58.895Z,69.78
2023-05-01T23:11:03.410Z,70.01
2023-05-01T23:16:08.223Z,69.30
2023-05-01T23:21:18.368Z,69.26
2023-05-01T23:26:29.469Z,69.00
2023-05-01T23:31:34.845Z,70.02
2023-05-01T23:36:46.860Z,69.83
2023-05-01T23:41:51.138Z,70.65
2023-05-01T23:46:57.044Z,71.04
2023-05-01T23:52:02.168Z,72.25
2023-05-01T23:57:07.144Z,71.37
